createdAt,value
2022-08-26T00:00:27.214Z,33.47
2022-08-26T00:01:29.689Z,34.11
2022-08-26T00:02:27.210Z,35.40
2022-08-26T00:03:27.169Z,34.76
2022-08-26T00:04:27.174Z,34.43
2022-08-26T00:05:27.135Z,33.47
2022-08-26T00:06:27.099Z,34.11
2022-08-26T00:07:27.158Z,32.50
2022-08-26T00:08:27.141Z,33.79
2022-08-26T00:09:27.072Z,34.76
2022-08-26T00:10:27.094Z,34.11
2022-08-26T00:11:27.273Z,33.79
2022-08-26T00:12:35.946Z,34.43
2022-08-26T00:13:27.049Z,33.47
2022-08-26T00:14:31.224Z,32.82
2022-08-26T00:15:27.007Z,35.72
2022-08-26T00:16:27.022Z,35.40
2022-08-26T00:17:27.012Z,34.76
2022-08-26T00:18:26.948Z,34.43
2022-08-26T00:19:26.959Z,34.43
2022-08-26T00:20:26.941Z,40.23
2022-08-26T00:21:26.944Z,35.08
2022-08-26T00:22:26.900Z,34.76
2022-08-26T00:23:26.896Z,34.76
2022-08-26T00:24:26.914Z,34.43
2022-08-26T00:25:26.838Z,34.11
2022-08-26T00:26:28.487Z,34.76
2022-08-26T00:27:26.829Z,33.14
2022-08-26T00:28:26.840Z,34.43
2022-08-26T00:29:26.787Z,33.79
2022-08-26T00:30:26.805Z,33.79
2022-08-26T00:31:26.844Z,32.50
2022-08-26T00:32:26.771Z,34.11
2022-08-26T00:33:26.751Z,33.47
2022-08-26T00:34:26.726Z,35.72
2022-08-26T00:35:27.980Z,33.47
2022-08-26T00:36:29.653Z,34.43
2022-08-26T00:37:26.680Z,34.76
2022-08-26T00:38:26.684Z,34.43
2022-08-26T00:39:26.664Z,34.76
2022-08-26T00:40:26.703Z,35.08
2022-08-26T00:41:26.672Z,33.79
2022-08-26T00:42:26.704Z,34.76
2022-08-26T00:43:26.642Z,34.11
2022-08-26T00:44:26.638Z,33.47
2022-08-26T00:45:26.620Z,34.76
2022-08-26T00:46:26.583Z,34.76
2022-08-26T00:47:26.632Z,34.11
2022-08-26T00:48:26.587Z,33.47
2022-08-26T00:49:26.557Z,33.47
2022-08-26T00:50:26.542Z,33.14
2022-08-26T00:51:29.665Z,33.79
2022-08-26T00:52:26.505Z,33.79
2022-08-26T00:53:27.962Z,33.79
2022-08-26T00:54:26.787Z,33.47
2022-08-26T00:55:34.472Z,34.76
2022-08-26T00:56:26.468Z,34.43
2022-08-26T00:57:26.435Z,36.37
2022-08-26T00:58:26.417Z,33.47
2022-08-26T00:59:26.391Z,33.47
2022-08-26T01:00:26.376Z,34.43
2022-08-26T01:01:26.384Z,34.76
2022-08-26T01:02:26.412Z,34.76
2022-08-26T01:03:26.361Z,33.47
2022-08-26T01:04:26.313Z,34.76
2022-08-26T01:05:26.323Z,33.47
2022-08-26T01:06:26.280Z,35.08
2022-08-26T01:07:26.330Z,33.47
2022-08-26T01:08:26.260Z,34.11
2022-08-26T01:09:26.282Z,35.08
2022-08-26T01:10:26.246Z,33.14
2022-08-26T01:11:26.245Z,34.11
2022-08-26T01:12:26.239Z,37.33
2022-08-26T01:13:26.231Z,34.11
2022-08-26T01:14:26.183Z,33.47
2022-08-26T01:15:26.191Z,33.47
2022-08-26T01:16:26.256Z,34.11
2022-08-26T01:17:26.146Z,34.43
2022-08-26T01:18:26.169Z,32.82
2022-08-26T01:19:26.111Z,33.79
2022-08-26T01:20:26.113Z,33.47
2022-08-26T01:21:26.135Z,33.79
2022-08-26T01:22:28.123Z,36.04
2022-08-26T01:23:26.081Z,33.47
2022-08-26T01:24:26.046Z,32.82
2022-08-26T01:25:26.093Z,33.14
2022-08-26T01:26:26.055Z,33.14
2022-08-26T01:27:26.061Z,33.14
2022-08-26T01:28:26.040Z,32.50
2022-08-26T01:29:26.046Z,32.18
2022-08-26T01:30:25.980Z,33.14
2022-08-26T01:31:26.082Z,33.14
2022-08-26T01:32:25.953Z,33.47
2022-08-26T01:33:25.947Z,33.14
2022-08-26T01:34:25.948Z,33.47
2022-08-26T01:35:25.909Z,33.47
2022-08-26T01:36:25.928Z,33.47
2022-08-26T01:37:25.869Z,32.50
2022-08-26T01:38:25.880Z,33.14
2022-08-26T01:39:25.846Z,32.50
2022-08-26T01:40:25.867Z,33.47
2022-08-26T01:41:27.502Z,35.40
2022-08-26T01:42:25.858Z,33.79
2022-08-26T01:43:25.810Z,34.76
2022-08-26T01:44:25.803Z,33.47
2022-08-26T01:45:25.852Z,33.14
2022-08-26T01:46:25.774Z,33.47
2022-08-26T01:47:25.783Z,34.76
2022-08-26T01:48:25.750Z,34.11
2022-08-26T01:49:26.048Z,33.47
2022-08-26T01:50:28.106Z,31.53
2022-08-26T01:51:25.790Z,33.14
2022-08-26T01:52:27.631Z,33.79
2022-08-26T01:53:25.647Z,34.43
2022-08-26T01:54:25.671Z,33.79
2022-08-26T01:55:32.884Z,33.14
2022-08-26T01:56:25.640Z,34.43
2022-08-26T01:57:25.672Z,33.79
2022-08-26T01:58:25.636Z,34.43
2022-08-26T01:59:25.604Z,33.47
2022-08-26T02:00:25.594Z,33.47
2022-08-26T02:01:29.211Z,33.47
2022-08-26T02:02:25.563Z,33.79
2022-08-26T02:03:25.584Z,33.79
2022-08-26T02:04:25.561Z,33.47
2022-08-26T02:05:25.489Z,34.76
2022-08-26T02:06:25.477Z,33.14
2022-08-26T02:07:26.779Z,33.14
2022-08-26T02:08:25.531Z,33.14
2022-08-26T02:09:25.457Z,34.11
2022-08-26T02:10:25.447Z,34.11
2022-08-26T02:11:25.424Z,31.86
2022-08-26T02:12:25.419Z,33.79
2022-08-26T02:13:25.394Z,32.18
2022-08-26T02:14:26.860Z,35.40
2022-08-26T02:15:25.386Z,34.11
2022-08-26T02:16:25.407Z,33.79
2022-08-26T02:17:25.374Z,34.76
2022-08-26T02:18:25.332Z,35.08
2022-08-26T02:19:25.321Z,32.50
2022-08-26T02:20:26.534Z,33.47
2022-08-26T02:21:25.300Z,34.43
2022-08-26T02:22:25.269Z,32.50
2022-08-26T02:23:25.275Z,33.47
2022-08-26T02:24:27.233Z,34.11
2022-08-26T02:25:25.232Z,33.79
2022-08-26T02:26:25.250Z,32.50
2022-08-26T02:27:25.202Z,31.86
2022-08-26T02:28:26.614Z,31.86
2022-08-26T02:29:25.193Z,34.43
2022-08-26T02:30:25.156Z,34.43
2022-08-26T02:31:25.194Z,35.08
2022-08-26T02:32:25.149Z,33.79
2022-08-26T02:33:25.157Z,32.82
2022-08-26T02:34:25.112Z,33.14
2022-08-26T02:35:25.100Z,33.47
2022-08-26T02:36:25.084Z,33.79
2022-08-26T02:37:25.067Z,33.14
2022-08-26T02:38:25.081Z,35.40
2022-08-26T02:39:25.061Z,31.21
2022-08-26T02:40:25.141Z,33.47
2022-08-26T02:41:25.058Z,33.79
2022-08-26T02:42:25.046Z,33.14
2022-08-26T02:43:31.766Z,34.11
2022-08-26T02:44:25.002Z,33.47
2022-08-26T02:45:24.969Z,33.79
2022-08-26T02:46:27.840Z,33.47
2022-08-26T02:47:25.005Z,33.14
2022-08-26T02:48:24.943Z,34.76
2022-08-26T02:49:24.924Z,32.50
2022-08-26T02:50:24.907Z,31.86
2022-08-26T02:51:24.903Z,36.04
2022-08-26T02:52:24.931Z,33.14
2022-08-26T02:53:25.516Z,34.11
2022-08-26T02:54:24.862Z,34.11
2022-08-26T02:55:24.901Z,33.47
2022-08-26T02:56:24.828Z,32.18
2022-08-26T02:57:24.814Z,34.11
2022-08-26T02:58:24.819Z,34.11
2022-08-26T02:59:24.795Z,35.72
2022-08-26T03:00:24.831Z,34.76
2022-08-26T03:01:24.890Z,33.79
2022-08-26T03:02:24.829Z,33.47
2022-08-26T03:03:24.717Z,33.79
2022-08-26T03:04:25.923Z,33.14
2022-08-26T03:05:24.716Z,36.37
2022-08-26T03:06:24.706Z,35.40
2022-08-26T03:07:24.702Z,34.76
2022-08-26T03:08:24.673Z,33.79
2022-08-26T03:09:24.640Z,35.40
2022-08-26T03:10:24.629Z,35.08
2022-08-26T03:11:25.137Z,40.56
2022-08-26T03:12:25.603Z,35.72
2022-08-26T03:13:24.650Z,35.72
2022-08-26T03:14:24.605Z,40.88
2022-08-26T03:15:24.563Z,34.76
2022-08-26T03:16:24.619Z,40.88
2022-08-26T03:17:24.574Z,40.23
2022-08-26T03:18:24.582Z,37.66
2022-08-26T03:19:24.543Z,42.81
2022-08-26T03:20:24.502Z,40.56
2022-08-26T03:21:24.515Z,33.79
2022-08-26T03:22:24.485Z,40.88
2022-08-26T03:23:24.497Z,33.79
2022-08-26T03:24:24.490Z,38.95
2022-08-26T03:25:24.419Z,40.88
2022-08-26T03:26:24.447Z,34.43
2022-08-26T03:27:24.416Z,36.04
2022-08-26T03:28:24.433Z,33.47
2022-08-26T03:29:24.395Z,35.08
2022-08-26T03:30:24.407Z,33.14
2022-08-26T03:31:24.724Z,34.43
2022-08-26T03:32:24.344Z,31.86
2022-08-26T03:33:24.351Z,34.76
2022-08-26T03:34:24.299Z,34.76
2022-08-26T03:35:24.281Z,35.08
2022-08-26T03:36:24.295Z,34.76
2022-08-26T03:37:24.266Z,35.72
2022-08-26T03:38:24.254Z,36.04
2022-08-26T03:39:24.227Z,35.08
2022-08-26T03:40:24.307Z,36.69
2022-08-26T03:41:24.210Z,33.14
2022-08-26T03:42:24.206Z,33.47
2022-08-26T03:43:24.225Z,33.47
2022-08-26T03:44:24.164Z,37.33
2022-08-26T03:45:24.196Z,35.08
2022-08-26T03:46:24.201Z,34.43
2022-08-26T03:47:24.121Z,35.40
2022-08-26T03:48:24.122Z,35.40
2022-08-26T03:49:24.159Z,37.01
2022-08-26T03:50:24.334Z,35.40
2022-08-26T03:51:24.322Z,33.14
2022-08-26T03:52:24.064Z,38.95
2022-08-26T03:53:24.060Z,35.72
2022-08-26T03:54:24.127Z,34.76
2022-08-26T03:55:24.051Z,37.66
2022-08-26T03:56:24.051Z,33.79
2022-08-26T03:57:24.027Z,36.69
2022-08-26T03:58:23.980Z,35.72
2022-08-26T03:59:23.978Z,36.04
2022-08-26T04:00:24.004Z,34.11
2022-08-26T04:01:24.043Z,34.43
2022-08-26T04:02:24.019Z,34.76
2022-08-26T04:03:24.006Z,38.30
2022-08-26T04:04:24.550Z,35.08
2022-08-26T04:05:23.881Z,36.69
2022-08-26T04:06:23.913Z,36.69
2022-08-26T04:07:23.855Z,36.69
2022-08-26T04:08:23.877Z,35.72
2022-08-26T04:09:23.828Z,37.98
2022-08-26T04:10:28.648Z,42.49
2022-08-26T04:11:23.823Z,37.66
2022-08-26T04:12:23.840Z,34.11
2022-08-26T04:13:23.832Z,37.01
2022-08-26T04:14:23.815Z,35.72
2022-08-26T04:15:23.742Z,37.01
2022-08-26T04:16:23.839Z,36.69
2022-08-26T04:17:25.084Z,43.46
2022-08-26T04:18:23.720Z,39.27
2022-08-26T04:19:23.726Z,38.62
2022-08-26T04:20:23.861Z,42.49
2022-08-26T04:21:23.703Z,39.59
2022-08-26T04:22:24.235Z,39.59
2022-08-26T04:23:23.650Z,35.40
2022-08-26T04:24:23.851Z,40.23
2022-08-26T04:25:24.161Z,36.37
2022-08-26T04:26:23.637Z,49.90
2022-08-26T04:27:23.612Z,42.49
2022-08-26T04:28:23.577Z,39.59
2022-08-26T04:29:23.590Z,40.23
2022-08-26T04:30:23.543Z,38.30
2022-08-26T04:31:23.617Z,43.13
2022-08-26T04:32:23.548Z,39.27
2022-08-26T04:33:32.227Z,38.62
2022-08-26T04:34:23.523Z,35.40
2022-08-26T04:35:26.015Z,42.81
2022-08-26T04:36:23.491Z,37.66
2022-08-26T04:37:23.455Z,40.23
2022-08-26T04:38:23.447Z,41.20
2022-08-26T04:39:23.458Z,36.69
2022-08-26T04:40:23.496Z,47.32
2022-08-26T04:41:23.410Z,42.81
2022-08-26T04:42:26.052Z,36.37
2022-08-26T04:43:23.396Z,37.66
2022-08-26T04:44:23.368Z,36.04
2022-08-26T04:45:23.358Z,38.95
2022-08-26T04:46:23.391Z,42.49
2022-08-26T04:47:23.320Z,35.40
2022-08-26T04:48:23.307Z,40.56
2022-08-26T04:49:23.299Z,47.00
2022-08-26T04:50:23.301Z,37.33
2022-08-26T04:51:23.272Z,36.69
2022-08-26T04:52:23.249Z,36.04
2022-08-26T04:53:23.248Z,38.62
2022-08-26T04:54:23.232Z,35.40
2022-08-26T04:55:25.230Z,39.27
2022-08-26T04:56:23.235Z,37.66
2022-08-26T04:57:23.202Z,35.08
2022-08-26T04:58:23.179Z,35.72
2022-08-26T04:59:23.149Z,39.91
2022-08-26T05:00:23.148Z,37.66
2022-08-26T05:01:23.873Z,45.71
2022-08-26T05:02:23.145Z,38.62
2022-08-26T05:03:23.101Z,38.62
2022-08-26T05:04:23.148Z,36.69
2022-08-26T05:05:23.088Z,57.96
2022-08-26T05:06:23.100Z,37.33
2022-08-26T05:07:23.065Z,41.85
2022-08-26T05:08:23.039Z,41.52
2022-08-26T05:09:23.049Z,35.72
2022-08-26T05:10:23.011Z,43.78
2022-08-26T05:11:23.024Z,39.27
2022-08-26T05:12:23.016Z,36.69
2022-08-26T05:13:22.978Z,37.33
2022-08-26T05:14:22.979Z,43.13
2022-08-26T05:15:22.984Z,37.66
2022-08-26T05:16:22.995Z,37.66
2022-08-26T05:17:22.946Z,35.08
2022-08-26T05:18:22.946Z,41.52
2022-08-26T05:19:22.882Z,37.66
2022-08-26T05:20:26.174Z,34.76
2022-08-26T05:21:22.857Z,37.66
2022-08-26T05:22:22.859Z,36.69
2022-08-26T05:23:23.014Z,37.01
2022-08-26T05:24:22.857Z,38.95
2022-08-26T05:25:22.820Z,38.62
2022-08-26T05:26:23.192Z,34.76
2022-08-26T05:27:22.807Z,35.72
2022-08-26T05:28:22.784Z,38.95
2022-08-26T05:29:22.748Z,34.76
2022-08-26T05:30:22.757Z,38.95
2022-08-26T05:31:22.796Z,35.72
2022-08-26T05:32:22.734Z,37.33
2022-08-26T05:33:22.700Z,34.76
2022-08-26T05:34:22.715Z,34.43
2022-08-26T05:35:22.695Z,44.75
2022-08-26T05:36:22.675Z,40.23
2022-08-26T05:37:22.669Z,38.30
2022-08-26T05:38:22.630Z,34.11
2022-08-26T05:39:22.631Z,48.94
2022-08-26T05:40:22.739Z,45.07
2022-08-26T05:41:22.609Z,43.13
2022-08-26T05:42:22.612Z,43.13
2022-08-26T05:43:22.586Z,48.29
2022-08-26T05:44:22.591Z,41.20
2022-08-26T05:45:22.578Z,45.07
2022-08-26T05:46:22.578Z,50.87
2022-08-26T05:47:22.518Z,40.23
2022-08-26T05:48:22.625Z,43.13
2022-08-26T05:49:22.605Z,45.07
2022-08-26T05:50:22.879Z,41.85
2022-08-26T05:51:25.842Z,46.04
2022-08-26T05:52:24.694Z,45.71
2022-08-26T05:53:22.436Z,41.52
2022-08-26T05:54:22.582Z,46.04
2022-08-26T05:55:22.433Z,49.58
2022-08-26T05:56:22.424Z,38.95
2022-08-26T05:57:23.160Z,45.39
2022-08-26T05:58:22.380Z,41.20
2022-08-26T05:59:24.474Z,48.94
2022-08-26T06:00:22.353Z,54.41
2022-08-26T06:01:22.414Z,49.26
2022-08-26T06:02:22.375Z,41.20
2022-08-26T06:03:22.330Z,44.75
2022-08-26T06:04:22.307Z,45.07
2022-08-26T06:05:22.273Z,39.91
2022-08-26T06:06:27.363Z,50.87
2022-08-26T06:07:22.304Z,43.46
2022-08-26T06:08:22.251Z,41.20
2022-08-26T06:09:22.252Z,48.29
2022-08-26T06:10:32.217Z,41.85
2022-08-26T06:11:22.230Z,44.75
2022-08-26T06:12:22.224Z,45.71
2022-08-26T06:13:22.229Z,46.68
2022-08-26T06:14:22.225Z,43.78
2022-08-26T06:15:22.194Z,45.71
2022-08-26T06:16:22.245Z,40.23
2022-08-26T06:17:22.155Z,46.68
2022-08-26T06:18:22.120Z,42.49
2022-08-26T06:19:22.190Z,45.71
2022-08-26T06:20:22.092Z,43.78
2022-08-26T06:21:22.081Z,44.42
2022-08-26T06:22:23.738Z,45.71
2022-08-26T06:23:22.058Z,45.07
2022-08-26T06:24:22.023Z,42.17
2022-08-26T06:25:22.042Z,41.52
2022-08-26T06:26:22.008Z,43.13
2022-08-26T06:27:22.011Z,41.85
2022-08-26T06:28:21.967Z,41.52
2022-08-26T06:29:24.798Z,41.85
2022-08-26T06:30:21.973Z,41.85
2022-08-26T06:31:22.017Z,35.72
2022-08-26T06:32:21.986Z,41.85
2022-08-26T06:33:21.908Z,43.13
2022-08-26T06:34:21.889Z,44.75
2022-08-26T06:35:21.898Z,47.00
2022-08-26T06:36:21.921Z,39.59
2022-08-26T06:37:21.878Z,40.23
2022-08-26T06:38:21.847Z,41.20
2022-08-26T06:39:21.838Z,37.66
2022-08-26T06:40:21.852Z,41.20
2022-08-26T06:41:21.819Z,38.95
2022-08-26T06:42:21.816Z,42.17
2022-08-26T06:43:21.789Z,45.71
2022-08-26T06:44:21.789Z,43.46
2022-08-26T06:45:21.785Z,44.75
2022-08-26T06:46:21.821Z,43.13
2022-08-26T06:47:21.760Z,44.10
2022-08-26T06:48:21.718Z,42.81
2022-08-26T06:49:26.593Z,45.71
2022-08-26T06:50:21.703Z,37.98
2022-08-26T06:51:22.302Z,44.75
2022-08-26T06:52:24.358Z,47.32
2022-08-26T06:53:21.658Z,37.98
2022-08-26T06:54:21.639Z,43.46
2022-08-26T06:55:21.621Z,42.17
2022-08-26T06:56:21.606Z,44.75
2022-08-26T06:57:21.662Z,46.68
2022-08-26T06:58:21.588Z,45.39
2022-08-26T06:59:21.587Z,41.20
2022-08-26T07:00:21.553Z,39.91
2022-08-26T07:01:21.565Z,45.71
2022-08-26T07:02:21.585Z,42.17
2022-08-26T07:03:21.541Z,40.56
2022-08-26T07:04:22.423Z,45.07
2022-08-26T07:05:21.547Z,47.00
2022-08-26T07:06:21.463Z,42.81
2022-08-26T07:07:21.994Z,49.58
2022-08-26T07:08:21.450Z,40.56
2022-08-26T07:09:21.509Z,44.10
2022-08-26T07:10:21.407Z,44.42
2022-08-26T07:11:21.428Z,51.19
2022-08-26T07:12:21.408Z,44.75
2022-08-26T07:13:30.580Z,48.94
2022-08-26T07:14:21.985Z,47.65
2022-08-26T07:15:27.116Z,45.71
2022-08-26T07:16:21.368Z,43.78
2022-08-26T07:17:21.320Z,43.78
2022-08-26T07:18:22.953Z,45.07
2022-08-26T07:19:30.104Z,43.46
2022-08-26T07:20:21.317Z,49.90
2022-08-26T07:21:21.315Z,47.00
2022-08-26T07:22:21.280Z,42.81
2022-08-26T07:23:21.279Z,46.36
2022-08-26T07:24:21.268Z,46.36
2022-08-26T07:25:21.210Z,49.90
2022-08-26T07:26:21.203Z,47.32
2022-08-26T07:27:21.207Z,44.42
2022-08-26T07:28:21.187Z,47.00
2022-08-26T07:29:21.180Z,42.49
2022-08-26T07:30:21.153Z,44.42
2022-08-26T07:31:21.290Z,47.97
2022-08-26T07:32:22.834Z,47.00
2022-08-26T07:33:21.122Z,44.75
2022-08-26T07:34:21.090Z,41.85
2022-08-26T07:35:21.109Z,48.94
2022-08-26T07:36:21.081Z,49.90
2022-08-26T07:37:21.096Z,47.00
2022-08-26T07:38:21.067Z,47.32
2022-08-26T07:39:21.087Z,51.19
2022-08-26T07:40:21.094Z,46.36
2022-08-26T07:41:21.037Z,50.55
2022-08-26T07:42:21.106Z,45.07
2022-08-26T07:43:20.998Z,47.32
2022-08-26T07:44:20.992Z,46.68
2022-08-26T07:45:20.973Z,48.94
2022-08-26T07:46:27.538Z,50.22
2022-08-26T07:47:26.136Z,48.94
2022-08-26T07:48:21.451Z,44.75
2022-08-26T07:49:21.065Z,47.65
2022-08-26T07:50:20.912Z,49.90
2022-08-26T07:51:20.875Z,50.22
2022-08-26T07:52:25.914Z,49.26
2022-08-26T07:53:20.873Z,49.90
2022-08-26T07:54:20.832Z,48.94
2022-08-26T07:55:20.821Z,49.58
2022-08-26T07:56:20.822Z,47.32
2022-08-26T07:57:20.819Z,47.00
2022-08-26T07:58:20.775Z,45.71
2022-08-26T07:59:20.797Z,51.84
2022-08-26T08:00:20.825Z,48.61
2022-08-26T08:01:20.850Z,51.19
2022-08-26T08:02:20.789Z,50.22
2022-08-26T08:03:20.779Z,51.19
2022-08-26T08:04:26.244Z,47.97
2022-08-26T08:05:20.695Z,50.22
2022-08-26T08:06:20.693Z,51.19
2022-08-26T08:07:20.692Z,47.97
2022-08-26T08:08:26.648Z,46.68
2022-08-26T08:09:20.684Z,49.58
2022-08-26T08:10:20.823Z,47.65
2022-08-26T08:11:20.621Z,49.26
2022-08-26T08:12:20.664Z,52.48
2022-08-26T08:13:20.586Z,48.61
2022-08-26T08:14:22.134Z,46.36
2022-08-26T08:15:20.624Z,46.04
2022-08-26T08:16:20.634Z,49.26
2022-08-26T08:17:20.570Z,50.55
2022-08-26T08:18:20.755Z,52.48
2022-08-26T08:19:20.513Z,48.94
2022-08-26T08:20:20.532Z,48.61
2022-08-26T08:21:21.610Z,51.19
2022-08-26T08:22:20.499Z,48.29
2022-08-26T08:23:20.487Z,49.26
2022-08-26T08:24:20.456Z,52.80
2022-08-26T08:25:20.457Z,49.58
2022-08-26T08:26:20.430Z,52.48
2022-08-26T08:27:23.859Z,49.26
2022-08-26T08:28:20.417Z,50.55
2022-08-26T08:29:20.401Z,50.22
2022-08-26T08:30:22.721Z,55.06
2022-08-26T08:31:33.250Z,48.29
2022-08-26T08:32:20.339Z,48.94
2022-08-26T08:33:20.340Z,46.36
2022-08-26T08:34:21.594Z,47.00
2022-08-26T08:35:20.317Z,53.12
2022-08-26T08:36:20.463Z,51.19
2022-08-26T08:37:20.273Z,40.88
2022-08-26T08:38:20.268Z,39.91
2022-08-26T08:39:20.284Z,42.49
2022-08-26T08:40:20.435Z,45.71
2022-08-26T08:41:20.254Z,44.75
2022-08-26T08:42:20.225Z,46.68
2022-08-26T08:43:20.228Z,43.78
2022-08-26T08:44:20.241Z,42.81
2022-08-26T08:45:20.183Z,44.75
2022-08-26T08:46:20.202Z,43.78
2022-08-26T08:47:20.146Z,46.04
2022-08-26T08:48:20.153Z,42.17
2022-08-26T08:49:20.154Z,44.10
2022-08-26T08:50:20.124Z,48.61
2022-08-26T08:51:20.094Z,46.36
2022-08-26T08:52:20.089Z,43.78
2022-08-26T08:53:20.088Z,45.71
2022-08-26T08:54:20.070Z,47.00
2022-08-26T08:55:20.039Z,44.42
2022-08-26T08:56:20.044Z,43.78
2022-08-26T08:57:20.045Z,42.17
2022-08-26T08:58:20.010Z,40.88
2022-08-26T08:59:20.008Z,40.56
2022-08-26T09:00:19.994Z,40.56
2022-08-26T09:01:20.018Z,40.23
2022-08-26T09:02:20.002Z,45.71
2022-08-26T09:03:19.961Z,76.65
2022-08-26T09:04:19.967Z,76.97
2022-08-26T09:05:19.936Z,40.23
2022-08-26T09:06:19.893Z,43.46
2022-08-26T09:07:19.886Z,46.04
2022-08-26T09:08:20.066Z,44.42
2022-08-26T09:09:19.888Z,40.23
2022-08-26T09:10:19.865Z,42.81
2022-08-26T09:11:19.854Z,45.71
2022-08-26T09:12:19.822Z,45.39
2022-08-26T09:13:26.104Z,45.39
2022-08-26T09:14:19.837Z,41.85
2022-08-26T09:15:19.782Z,44.10
2022-08-26T09:16:20.427Z,40.56
2022-08-26T09:17:19.788Z,39.59
2022-08-26T09:18:19.743Z,40.56
2022-08-26T09:19:19.784Z,40.23
2022-08-26T09:20:19.768Z,39.59
2022-08-26T09:21:19.751Z,38.95
2022-08-26T09:22:19.738Z,40.88
2022-08-26T09:23:19.704Z,39.91
2022-08-26T09:24:19.684Z,41.85
2022-08-26T09:25:19.692Z,42.81
2022-08-26T09:26:19.703Z,38.95
2022-08-26T09:27:19.649Z,43.78
2022-08-26T09:28:19.653Z,38.62
2022-08-26T09:30:19.613Z,41.85
2022-08-26T09:31:19.694Z,39.27
2022-08-26T09:32:19.570Z,44.10
2022-08-26T09:33:19.641Z,39.59
2022-08-26T09:34:19.586Z,42.81
2022-08-26T09:35:19.562Z,44.42
2022-08-26T09:36:19.549Z,41.85
2022-08-26T09:37:19.515Z,41.52
2022-08-26T09:38:19.514Z,40.23
2022-08-26T09:39:19.518Z,39.59
2022-08-26T09:40:19.542Z,43.78
2022-08-26T09:41:19.468Z,41.85
2022-08-26T09:42:19.430Z,40.88
2022-08-26T09:43:22.305Z,67.95
2022-08-26T09:44:19.405Z,71.49
2022-08-26T09:45:19.440Z,47.00
2022-08-26T09:46:19.523Z,39.59
2022-08-26T09:47:19.403Z,39.59
2022-08-26T09:48:19.371Z,40.88
2022-08-26T09:49:19.352Z,40.23
2022-08-26T09:50:19.348Z,43.46
2022-08-26T09:51:19.318Z,39.59
2022-08-26T09:52:19.315Z,39.91
2022-08-26T09:53:20.942Z,40.56
2022-08-26T09:54:20.724Z,43.46
2022-08-26T09:55:19.620Z,39.59
2022-08-26T09:56:19.264Z,39.91
2022-08-26T09:57:19.247Z,41.85
2022-08-26T09:58:19.251Z,41.20
2022-08-26T09:59:19.224Z,53.77
2022-08-26T10:00:19.213Z,48.61
2022-08-26T10:01:19.552Z,47.00
2022-08-26T10:02:19.222Z,47.32
2022-08-26T10:03:19.182Z,50.22
2022-08-26T10:04:19.208Z,49.58
2022-08-26T10:05:19.159Z,51.19
2022-08-26T10:06:21.003Z,49.58
2022-08-26T10:07:19.133Z,48.61
2022-08-26T10:08:19.116Z,47.00
2022-08-26T10:09:19.129Z,47.00
2022-08-26T10:10:19.102Z,43.13
2022-08-26T10:11:19.058Z,40.88
2022-08-26T10:12:19.121Z,40.56
2022-08-26T10:13:19.060Z,40.23
2022-08-26T10:14:19.033Z,39.91
2022-08-26T10:15:19.079Z,40.56
2022-08-26T10:16:19.085Z,41.52
2022-08-26T10:17:18.989Z,44.75
2022-08-26T10:18:19.022Z,40.88
2022-08-26T10:19:18.997Z,41.20
2022-08-26T10:20:23.119Z,48.29
2022-08-26T10:21:18.957Z,50.87
2022-08-26T10:22:18.951Z,49.58
2022-08-26T10:23:18.928Z,47.00
2022-08-26T10:24:18.911Z,47.00
2022-08-26T10:25:18.886Z,47.32
2022-08-26T10:26:18.897Z,47.65
2022-08-26T10:27:18.884Z,46.36
2022-08-26T10:28:18.929Z,46.68
2022-08-26T10:29:18.884Z,46.36
2022-08-26T10:30:18.871Z,45.71
2022-08-26T10:31:19.830Z,46.36
2022-08-26T10:32:18.874Z,48.94
2022-08-26T10:33:18.792Z,55.06
2022-08-26T10:34:18.784Z,45.71
2022-08-26T10:35:18.802Z,47.32
2022-08-26T10:36:20.313Z,45.39
2022-08-26T10:37:18.748Z,40.23
2022-08-26T10:38:18.744Z,46.36
2022-08-26T10:39:18.725Z,39.59
2022-08-26T10:40:18.805Z,38.95
2022-08-26T10:41:18.741Z,39.91
2022-08-26T10:42:18.701Z,38.62
2022-08-26T10:43:18.691Z,38.95
2022-08-26T10:44:18.684Z,46.36
2022-08-26T10:45:18.685Z,41.52
2022-08-26T10:46:18.688Z,40.88
2022-08-26T10:47:18.656Z,39.27
2022-08-26T10:48:18.638Z,41.20
2022-08-26T10:49:18.604Z,39.59
2022-08-26T10:50:18.944Z,40.23
2022-08-26T10:51:18.602Z,39.91
2022-08-26T10:52:18.569Z,39.59
2022-08-26T10:53:18.579Z,43.13
2022-08-26T10:54:18.570Z,41.52
2022-08-26T10:55:18.558Z,41.85
2022-08-26T10:56:19.117Z,46.36
2022-08-26T10:57:18.523Z,46.36
2022-08-26T10:58:26.227Z,45.07
2022-08-26T10:59:18.499Z,46.04
2022-08-26T11:00:18.470Z,46.36
2022-08-26T11:01:22.926Z,45.39
2022-08-26T11:02:22.750Z,46.04
2022-08-26T11:03:22.428Z,47.32
2022-08-26T11:04:18.496Z,45.07
2022-08-26T11:05:18.400Z,46.36
2022-08-26T11:06:18.428Z,43.46
2022-08-26T11:07:18.453Z,46.68
2022-08-26T11:08:18.388Z,45.07
2022-08-26T11:09:18.359Z,46.36
2022-08-26T11:10:18.404Z,46.04
2022-08-26T11:11:18.360Z,44.75
2022-08-26T11:12:18.371Z,47.00
2022-08-26T11:13:18.336Z,47.65
2022-08-26T11:14:18.352Z,45.07
2022-08-26T11:15:18.304Z,45.71
2022-08-26T11:16:18.359Z,44.75
2022-08-26T11:17:18.307Z,43.78
2022-08-26T11:18:18.289Z,41.20
2022-08-26T11:19:18.241Z,45.71
2022-08-26T11:20:18.286Z,44.42
2022-08-26T11:21:18.215Z,45.07
2022-08-26T11:22:18.195Z,45.07
2022-08-26T11:23:18.177Z,44.42
2022-08-26T11:24:18.185Z,46.68
2022-08-26T11:25:18.400Z,48.94
2022-08-26T11:26:35.403Z,52.16
2022-08-26T11:27:18.142Z,47.97
2022-08-26T11:28:18.126Z,49.90
2022-08-26T11:29:18.121Z,88.57
2022-08-26T11:30:18.516Z,83.74
2022-08-26T11:31:18.116Z,52.48
2022-08-26T11:32:18.055Z,60.54
2022-08-26T11:33:18.080Z,53.77
2022-08-26T11:34:18.026Z,48.61
2022-08-26T11:35:18.028Z,60.54
2022-08-26T11:36:18.019Z,59.57
2022-08-26T11:37:17.979Z,82.77
2022-08-26T11:38:17.975Z,92.76
2022-08-26T11:39:17.958Z,113.71
2022-08-26T11:40:18.006Z,96.95
2022-08-26T11:41:17.957Z,107.59
2022-08-26T11:42:20.313Z,115.00
2022-08-26T11:43:17.902Z,131.44
2022-08-26T11:44:17.912Z,129.82
2022-08-26T11:45:17.896Z,75.68
2022-08-26T11:46:17.950Z,86.32
2022-08-26T11:47:17.874Z,87.93
2022-08-26T11:48:17.842Z,106.30
2022-08-26T11:49:17.895Z,99.53
2022-08-26T11:50:17.869Z,71.49
2022-08-26T11:51:17.804Z,122.09
2022-08-26T11:52:17.807Z,109.52
2022-08-26T11:53:17.776Z,99.85
2022-08-26T11:54:17.763Z,104.37
2022-08-26T11:55:17.763Z,89.22
2022-08-26T11:56:17.748Z,76.97
2022-08-26T11:57:17.736Z,71.82
2022-08-26T11:58:17.722Z,129.18
2022-08-26T11:59:17.698Z,73.43
2022-08-26T12:00:22.549Z,117.26
2022-08-26T12:01:17.688Z,69.56
2022-08-26T12:02:17.774Z,85.67
2022-08-26T12:03:17.688Z,80.84
2022-08-26T12:04:17.709Z,62.47
2022-08-26T12:05:17.603Z,93.09
2022-08-26T12:06:17.690Z,61.18
2022-08-26T12:07:18.580Z,51.19
2022-08-26T12:08:17.590Z,53.77
2022-08-26T12:09:17.556Z,56.67
2022-08-26T12:10:17.603Z,61.18
2022-08-26T12:11:17.542Z,73.11
2022-08-26T12:12:17.564Z,90.19
2022-08-26T12:13:17.547Z,63.44
2022-08-26T12:14:17.508Z,124.02
2022-08-26T12:15:17.492Z,77.94
2022-08-26T12:16:17.540Z,127.57
2022-08-26T12:17:17.474Z,112.10
2022-08-26T12:18:17.461Z,87.93
2022-08-26T12:19:17.438Z,104.37
2022-08-26T12:20:17.439Z,135.62
2022-08-26T12:21:17.435Z,89.86
2022-08-26T12:22:17.390Z,90.83
2022-08-26T12:23:17.404Z,122.41
2022-08-26T12:24:17.381Z,116.29
2022-08-26T12:31:18.097Z,115.64
2022-08-26T12:32:18.947Z,88.57
2022-08-26T12:33:22.686Z,66.66
2022-08-26T12:34:18.982Z,94.05
2022-08-26T12:35:18.926Z,129.50
2022-08-26T12:36:18.918Z,66.34
2022-08-26T12:37:19.091Z,113.71
2022-08-26T12:38:18.867Z,140.78
2022-08-26T12:39:18.869Z,87.93
2022-08-26T12:40:18.887Z,116.61
2022-08-26T12:41:18.857Z,75.68
2022-08-26T12:42:18.841Z,101.79
2022-08-26T12:43:18.813Z,105.33
2022-08-26T12:44:18.817Z,96.63
2022-08-26T12:45:18.780Z,56.35
2022-08-26T12:46:18.779Z,51.51
2022-08-26T12:47:25.792Z,55.70
2022-08-26T12:48:18.754Z,57.64
2022-08-26T12:49:18.733Z,51.51
2022-08-26T12:50:18.763Z,49.58
2022-08-26T12:51:18.742Z,54.74
2022-08-26T12:52:18.685Z,51.84
2022-08-26T12:53:18.710Z,48.94
2022-08-26T12:54:18.676Z,42.49
2022-08-26T12:55:18.687Z,67.63
2022-08-26T12:56:18.661Z,61.50
2022-08-26T12:57:18.619Z,64.40
2022-08-26T12:58:18.623Z,79.55